createdAt,value
2022-11-15T09:31:35.761Z,100720.50
2022-11-15T09:34:02.797Z,100720.50
2022-11-15T09:36:29.543Z,100726.81
2022-11-15T09:38:59.173Z,100719.81
2022-11-15T09:41:26.021Z,100722.44
2022-11-15T09:44:14.172Z,100727.75
2022-11-15T09:47:03.570Z,100722.47
2022-11-15T09:49:32.877Z,100713.69
2022-11-15T09:52:00.315Z,100711.03
2022-11-15T09:57:25.461Z,100696.91
2022-11-15T10:00:43.961Z,100694.25
2022-11-15T10:03:05.454Z,100698.66
2022-11-15T10:05:36.130Z,100686.28
2022-11-15T10:08:23.537Z,100690.66
2022-11-15T10:11:15.816Z,100678.31
2022-11-15T10:13:48.680Z,100668.63
2022-11-15T10:16:27.538Z,100667.72
2022-11-15T10:19:24.920Z,100675.62
2022-11-15T10:21:57.559Z,100674.75
2022-11-15T10:24:33.104Z,100671.25
2022-11-15T10:26:59.875Z,100659.78
2022-11-15T10:29:27.478Z,100656.28
2022-11-15T10:31:54.763Z,100651.91
2022-11-15T10:34:27.674Z,100643.09
2022-11-15T10:37:00.228Z,100644.81
2022-11-15T10:39:27.068Z,100638.62
2022-11-15T10:41:54.196Z,100640.41
2022-11-15T10:44:23.094Z,100634.25
2022-11-15T10:46:55.801Z,100635.16
2022-11-15T10:49:33.888Z,100633.41
2022-11-15T10:52:12.756Z,100614.94
2022-11-15T10:54:44.044Z,100623.75
2022-11-15T10:57:20.222Z,100614.06
2022-11-15T10:59:49.975Z,100613.22
2022-11-15T11:02:57.962Z,100614.13
2022-11-15T11:05:30.045Z,100609.72
2022-11-15T11:08:14.002Z,100604.44
2022-11-15T11:10:58.572Z,100600.03
2022-11-15T11:13:32.340Z,100600.03
2022-11-15T11:16:27.010Z,100589.47
2022-11-15T11:19:12.355Z,100586.81
2022-11-15T11:22:17.655Z,100589.47
2022-11-15T11:24:44.330Z,100586.78
2022-11-15T11:27:37.462Z,100577.94
2022-11-15T11:30:21.079Z,100582.38
2022-11-15T11:33:11.308Z,100588.53
2022-11-15T11:36:00.908Z,100583.28
2022-11-15T11:38:42.780Z,100573.56
2022-11-15T11:41:21.766Z,100572.72
2022-11-15T11:43:51.720Z,100573.59
2022-11-15T11:46:39.798Z,100576.25
2022-11-15T11:49:41.960Z,100566.56
2022-11-15T11:52:18.062Z,100563.06
2022-11-15T11:55:12.297Z,100561.25
2022-11-15T11:57:50.365Z,100555.97
2022-11-15T12:00:28.593Z,100551.56
2022-11-15T12:03:12.719Z,100545.47
2022-11-15T12:05:47.913Z,100552.47
2022-11-15T12:08:30.156Z,100548.03
2022-11-15T12:11:09.709Z,100533.94
2022-11-15T12:13:38.202Z,100535.66
2022-11-15T12:16:21.116Z,100526.88
2022-11-15T12:18:53.638Z,100526.81
2022-11-15T12:21:33.773Z,100514.47
2022-11-15T12:24:06.853Z,100496.88
2022-11-15T12:26:46.925Z,100497.75
2022-11-15T12:29:38.629Z,100497.78
2022-11-15T12:32:12.626Z,100498.66
2022-11-15T12:34:44.999Z,100490.72
2022-11-15T12:37:36.827Z,100481.03
2022-11-15T12:40:22.607Z,100485.44
2022-11-15T12:43:15.022Z,100488.13
2022-11-15T12:45:46.871Z,100485.44
2022-11-15T12:48:16.724Z,100484.59
2022-11-15T12:50:55.421Z,100481.06
2022-11-15T12:53:25.506Z,100477.53
2022-11-15T12:56:10.469Z,100475.75
2022-11-15T12:59:03.295Z,100476.75
2022-11-15T15:43:33.255Z,100336.91
2022-11-15T15:46:00.318Z,100336.91
2022-11-15T15:48:27.115Z,100347.94
2022-11-15T15:50:54.083Z,100347.00
2022-11-15T16:14:27.115Z,100329.84
2022-11-15T16:16:54.167Z,100329.84
2022-11-15T16:19:20.920Z,100335.56
2022-11-15T16:21:47.724Z,100344.34
2022-11-15T16:24:14.514Z,100328.59
2022-11-15T16:26:41.466Z,100337.38
2022-11-15T16:29:10.323Z,100337.41
2022-11-15T16:31:37.625Z,100334.75
2022-11-15T16:34:04.616Z,100325.06
2022-11-15T16:36:34.612Z,100325.00
2022-11-15T16:39:05.361Z,100319.78
2022-11-15T16:41:32.264Z,100319.72
2022-11-15T16:43:59.250Z,100326.81
